sensor_id;sensor_type;location;lat;lon;timestamp;P1;durP1;ratioP1;P2;durP2;ratioP2
18520;SDS011;9390;51.244;6.982;2023-03-23T07:23:39;7.35;;;1.77;;
18520;SDS011;9390;51.244;6.982;2023-03-23T07:26:10;7.30;;;1.90;;
18520;SDS011;9390;51.244;6.982;2023-03-23T07:28:42;8.45;;;2.28;;
18520;SDS011;9390;51.244;6.982;2023-03-23T07:31:14;6.13;;;2.00;;
18520;SDS011;9390;51.244;6.982;2023-03-23T07:33:46;10.05;;;2.15;;
18520;SDS011;9390;51.244;6.982;2023-03-23T07:36:17;8.07;;;2.10;;
18520;SDS011;9390;51.244;6.982;2023-03-23T07:38:50;6.97;;;2.22;;
18520;SDS011;9390;51.244;6.982;2023-03-23T07:41:21;6.22;;;2.05;;
18520;SDS011;9390;51.244;6.982;2023-03-23T07:43:53;9.18;;;2.25;;
18520;SDS011;9390;51.244;6.982;2023-03-23T07:46:24;14.40;;;2.20;;
18520;SDS011;9390;51.244;6.982;2023-03-23T07:48:56;10.20;;;2.50;;
18520;SDS011;9390;51.244;6.982;2023-03-23T07:51:27;5.78;;;1.70;;
18520;SDS011;9390;51.244;6.982;2023-03-23T07:54:00;4.00;;;1.65;;
18520;SDS011;9390;51.244;6.982;2023-03-23T07:56:32;5.68;;;1.60;;
18520;SDS011;9390;51.244;6.982;2023-03-23T07:59:04;10.27;;;2.03;;
18520;SDS011;9390;51.244;6.982;2023-03-23T08:01:35;7.60;;;2.00;;
18520;SDS011;9390;51.244;6.982;2023-03-23T08:04:07;8.93;;;2.10;;
18520;SDS011;9390;51.244;6.982;2023-03-23T08:06:38;6.05;;;1.70;;
18520;SDS011;9390;51.244;6.982;2023-03-23T08:09:11;9.95;;;2.30;;
18520;SDS011;9390;51.244;6.982;2023-03-23T08:11:43;10.48;;;1.45;;
18520;SDS011;9390;51.244;6.982;2023-03-23T08:14:14;5.60;;;1.60;;
18520;SDS011;9390;51.244;6.982;2023-03-23T08:16:46;10.77;;;1.70;;
18520;SDS011;9390;51.244;6.982;2023-03-23T08:19:18;5.05;;;1.48;;
18520;SDS011;9390;51.244;6.982;2023-03-23T08:21:50;8.07;;;1.80;;
18520;SDS011;9390;51.244;6.982;2023-03-23T08:24:22;11.18;;;2.03;;
18520;SDS011;9390;51.244;6.982;2023-03-23T08:26:54;6.15;;;1.90;;
18520;SDS011;9390;51.244;6.982;2023-03-23T08:29:26;5.60;;;1.73;;
18520;SDS011;9390;51.244;6.982;2023-03-23T08:31:57;7.78;;;1.75;;
18520;SDS011;9390;51.244;6.982;2023-03-23T08:34:29;6.35;;;1.80;;
18520;SDS011;9390;51.244;6.982;2023-03-23T08:37:00;6.10;;;1.60;;
18520;SDS011;9390;51.244;6.982;2023-03-23T08:39:34;6.60;;;2.03;;
18520;SDS011;9390;51.244;6.982;2023-03-23T08:42:05;9.18;;;1.85;;
18520;SDS011;9390;51.244;6.982;2023-03-23T08:44:37;5.55;;;1.70;;
18520;SDS011;9390;51.244;6.982;2023-03-23T08:47:08;5.18;;;1.77;;
18520;SDS011;9390;51.244;6.982;2023-03-23T08:49:40;9.82;;;2.08;;
18520;SDS011;9390;51.244;6.982;2023-03-23T08:52:12;7.27;;;1.97;;
18520;SDS011;9390;51.244;6.982;2023-03-23T08:54:44;5.57;;;1.67;;
18520;SDS011;9390;51.244;6.982;2023-03-23T08:57:17;7.43;;;1.80;;
18520;SDS011;9390;51.244;6.982;2023-03-23T08:59:49;9.13;;;2.00;;
18520;SDS011;9390;51.244;6.982;2023-03-23T09:02:21;7.90;;;2.03;;
18520;SDS011;9390;51.244;6.982;2023-03-23T09:04:53;8.30;;;1.80;;
18520;SDS011;9390;51.244;6.982;2023-03-23T09:07:25;6.38;;;1.90;;
18520;SDS011;9390;51.244;6.982;2023-03-23T09:09:57;4.57;;;1.77;;
18520;SDS011;9390;51.244;6.982;2023-03-23T09:12:29;7.75;;;1.77;;
18520;SDS011;9390;51.244;6.982;2023-03-23T09:15:00;10.18;;;2.35;;
18520;SDS011;9390;51.244;6.982;2023-03-23T09:17:35;6.57;;;1.65;;
18520;SDS011;9390;51.244;6.982;2023-03-23T09:20:08;10.13;;;1.83;;
18520;SDS011;9390;51.244;6.982;2023-03-23T09:22:42;9.25;;;1.80;;
18520;SDS011;9390;51.244;6.982;2023-03-23T09:25:17;5.03;;;1.70;;
18520;SDS011;9390;51.244;6.982;2023-03-23T09:27:51;10.35;;;2.05;;
18520;SDS011;9390;51.244;6.982;2023-03-23T09:30:26;6.97;;;1.73;;
18520;SDS011;9390;51.244;6.982;2023-03-23T09:33:00;9.32;;;1.83;;
18520;SDS011;9390;51.244;6.982;2023-03-23T09:35:32;11.07;;;1.77;;
18520;SDS011;9390;51.244;6.982;2023-03-23T09:38:04;5.93;;;1.90;;
18520;SDS011;9390;51.244;6.982;2023-03-23T09:40:39;6.22;;;2.00;;
18520;SDS011;9390;51.244;6.982;2023-03-23T09:46:14;6.63;;;2.00;;
18520;SDS011;9390;51.244;6.982;2023-03-23T09:48:57;8.93;;;2.10;;
18520;SDS011;9390;51.244;6.982;2023-03-23T09:51:33;10.98;;;2.17;;
18520;SDS011;9390;51.244;6.982;2023-03-23T09:54:10;12.27;;;2.20;;
18520;SDS011;9390;51.244;6.982;2023-03-23T09:56:46;8.38;;;1.73;;
18520;SDS011;9390;51.244;6.982;2023-03-23T09:59:19;7.97;;;2.00;;
18520;SDS011;9390;51.244;6.982;2023-03-23T10:01:55;9.55;;;2.10;;
18520;SDS011;9390;51.244;6.982;2023-03-23T10:04:32;9.50;;;2.00;;
18520;SDS011;9390;51.244;6.982;2023-03-23T10:07:09;11.70;;;2.00;;
18520;SDS011;9390;51.244;6.982;2023-03-23T10:09:43;11.43;;;1.75;;
18520;SDS011;9390;51.244;6.982;2023-03-23T10:14:58;9.45;;;1.80;;
18520;SDS011;9390;51.244;6.982;2023-03-23T10:17:37;7.90;;;1.77;;
18520;SDS011;9390;51.244;6.982;2023-03-23T10:23:09;2.97;;;0.95;;
18520;SDS011;9390;51.244;6.982;2023-03-23T10:25:56;2.80;;;0.93;;
18520;SDS011;9390;51.244;6.982;2023-03-23T10:28:43;2.80;;;0.90;;
18520;SDS011;9390;51.244;6.982;2023-03-23T10:31:20;5.80;;;1.00;;
18520;SDS011;9390;51.244;6.982;2023-03-23T10:33:54;3.10;;;1.05;;
18520;SDS011;9390;51.244;6.982;2023-03-23T10:36:27;5.75;;;1.33;;
18520;SDS011;9390;51.244;6.982;2023-03-23T10:39:02;5.10;;;1.40;;
18520;SDS011;9390;51.244;6.982;2023-03-23T10:41:52;6.68;;;1.70;;
18520;SDS011;9390;51.244;6.982;2023-03-23T10:48:30;4.22;;;1.25;;
18520;SDS011;9390;51.244;6.982;2023-03-23T10:53:36;6.38;;;1.60;;
18520;SDS011;9390;51.244;6.982;2023-03-23T10:56:18;6.93;;;1.70;;
18520;SDS011;9390;51.244;6.982;2023-03-23T10:58:54;7.20;;;1.90;;
18520;SDS011;9390;51.244;6.982;2023-03-23T11:01:30;7.82;;;2.53;;
18520;SDS011;9390;51.244;6.982;2023-03-23T11:04:03;7.85;;;1.92;;
18520;SDS011;9390;51.244;6.982;2023-03-23T11:06:43;7.40;;;1.90;;
18520;SDS011;9390;51.244;6.982;2023-03-23T11:09:17;6.93;;;2.10;;
18520;SDS011;9390;51.244;6.982;2023-03-23T11:11:50;7.75;;;2.20;;
18520;SDS011;9390;51.244;6.982;2023-03-23T11:16:59;7.60;;;1.90;;
18520;SDS011;9390;51.244;6.982;2023-03-23T11:19:32;4.25;;;1.55;;
18520;SDS011;9390;51.244;6.982;2023-03-23T11:22:07;7.43;;;2.28;;
18520;SDS011;9390;51.244;6.982;2023-03-23T11:24:40;7.22;;;2.25;;
18520;SDS011;9390;51.244;6.982;2023-03-23T11:27:13;7.72;;;2.40;;
18520;SDS011;9390;51.244;6.982;2023-03-23T11:29:48;7.38;;;1.90;;
18520;SDS011;9390;51.244;6.982;2023-03-23T11:32:24;6.07;;;2.10;;
18520;SDS011;9390;51.244;6.982;2023-03-23T11:34:57;12.98;;;2.80;;
18520;SDS011;9390;51.244;6.982;2023-03-23T11:37:32;6.90;;;2.38;;
18520;SDS011;9390;51.244;6.982;2023-03-23T11:40:14;11.68;;;2.50;;
18520;SDS011;9390;51.244;6.982;2023-03-23T11:42:47;7.97;;;2.30;;
18520;SDS011;9390;51.244;6.982;2023-03-23T11:45:21;7.28;;;2.20;;
18520;SDS011;9390;51.244;6.982;2023-03-23T11:47:56;6.95;;;2.30;;
18520;SDS011;9390;51.244;6.982;2023-03-23T11:50:32;6.13;;;1.90;;
18520;SDS011;9390;51.244;6.982;2023-03-23T11:53:08;12.73;;;2.85;;
18520;SDS011;9390;51.244;6.982;2023-03-23T11:55:50;5.97;;;2.47;;
18520;SDS011;9390;51.244;6.982;2023-03-23T11:58:26;8.05;;;2.33;;
18520;SDS011;9390;51.244;6.982;2023-03-23T12:01:04;9.50;;;2.22;;
18520;SDS011;9390;51.244;6.982;2023-03-23T12:03:47;8.40;;;2.60;;
18520;SDS011;9390;51.244;6.982;2023-03-23T12:06:30;7.43;;;2.80;;
18520;SDS011;9390;51.244;6.982;2023-03-23T12:09:09;13.05;;;2.90;;
18520;SDS011;9390;51.244;6.982;2023-03-23T12:11:53;8.52;;;3.10;;
18520;SDS011;9390;51.244;6.982;2023-03-23T12:14:36;10.23;;;3.70;;
18520;SDS011;9390;51.244;6.982;2023-03-23T12:17:18;9.63;;;4.00;;
18520;SDS011;9390;51.244;6.982;2023-03-23T12:19:58;10.45;;;3.90;;
18520;SDS011;9390;51.244;6.982;2023-03-23T12:22:42;12.50;;;4.38;;
18520;SDS011;9390;51.244;6.982;2023-03-23T12:25:22;14.27;;;4.40;;
18520;SDS011;9390;51.244;6.982;2023-03-23T12:28:06;12.75;;;5.20;;
18520;SDS011;9390;51.244;6.982;2023-03-23T12:30:44;12.00;;;5.35;;
18520;SDS011;9390;51.244;6.982;2023-03-23T12:33:23;11.40;;;5.05;;
18520;SDS011;9390;51.244;6.982;2023-03-23T12:36:04;11.73;;;5.45;;
18520;SDS011;9390;51.244;6.982;2023-03-23T12:38:47;13.48;;;5.10;;
18520;SDS011;9390;51.244;6.982;2023-03-23T12:41:27;15.15;;;6.10;;
18520;SDS011;9390;51.244;6.982;2023-03-23T12:44:02;13.18;;;5.78;;
18520;SDS011;9390;51.244;6.982;2023-03-23T12:46:46;11.45;;;5.40;;
18520;SDS011;9390;51.244;6.982;2023-03-23T12:49:24;15.32;;;6.00;;
18520;SDS011;9390;51.244;6.982;2023-03-23T12:52:00;12.68;;;5.40;;
18520;SDS011;9390;51.244;6.982;2023-03-23T12:54:36;18.13;;;5.05;;
18520;SDS011;9390;51.244;6.982;2023-03-23T12:57:10;13.77;;;4.85;;
18520;SDS011;9390;51.244;6.982;2023-03-23T12:59:47;16.77;;;5.53;;
18520;SDS011;9390;51.244;6.982;2023-03-23T13:02:21;15.45;;;5.47;;
18520;SDS011;9390;51.244;6.982;2023-03-23T13:04:56;12.88;;;5.63;;
18520;SDS011;9390;51.244;6.982;2023-03-23T13:07:32;14.18;;;6.30;;
18520;SDS011;9390;51.244;6.982;2023-03-23T13:10:12;12.13;;;5.78;;
18520;SDS011;9390;51.244;6.982;2023-03-23T13:12:46;11.57;;;6.25;;
18520;SDS011;9390;51.244;6.982;2023-03-23T13:15:21;10.85;;;6.15;;
18520;SDS011;9390;51.244;6.982;2023-03-23T13:18:00;13.30;;;5.50;;
18520;SDS011;9390;51.244;6.982;2023-03-23T13:20:41;13.63;;;6.97;;
18520;SDS011;9390;51.244;6.982;2023-03-23T13:23:20;12.60;;;5.43;;
18520;SDS011;9390;51.244;6.982;2023-03-23T13:25:54;11.75;;;6.10;;
18520;SDS011;9390;51.244;6.982;2023-03-23T13:28:28;13.45;;;5.93;;
18520;SDS011;9390;51.244;6.982;2023-03-23T13:31:02;13.15;;;6.13;;
18520;SDS011;9390;51.244;6.982;2023-03-23T13:33:35;17.27;;;5.40;;
18520;SDS011;9390;51.244;6.982;2023-03-23T13:36:08;13.20;;;5.90;;
18520;SDS011;9390;51.244;6.982;2023-03-23T13:38:46;12.48;;;6.07;;
18520;SDS011;9390;51.244;6.982;2023-03-23T13:41:19;11.07;;;5.43;;
18520;SDS011;9390;51.244;6.982;2023-03-23T13:43:51;16.55;;;6.50;;
18520;SDS011;9390;51.244;6.982;2023-03-23T13:46:24;13.73;;;6.35;;
18520;SDS011;9390;51.244;6.982;2023-03-23T13:49:04;14.65;;;6.40;;
18520;SDS011;9390;51.244;6.982;2023-03-23T13:51:51;13.68;;;6.20;;
18520;SDS011;9390;51.244;6.982;2023-03-23T13:54:29;13.98;;;6.82;;
18520;SDS011;9390;51.244;6.982;2023-03-23T13:57:02;21.25;;;8.02;;
18520;SDS011;9390;51.244;6.982;2023-03-23T13:59:45;17.10;;;8.10;;
18520;SDS011;9390;51.244;6.982;2023-03-23T14:02:28;20.85;;;8.02;;
18520;SDS011;9390;51.244;6.982;2023-03-23T14:05:10;19.52;;;9.02;;
18520;SDS011;9390;51.244;6.982;2023-03-23T14:07:54;21.13;;;10.02;;
18520;SDS011;9390;51.244;6.982;2023-03-23T14:10:33;20.92;;;10.43;;
18520;SDS011;9390;51.244;6.982;2023-03-23T14:13:06;22.88;;;11.23;;
18520;SDS011;9390;51.244;6.982;2023-03-23T14:15:56;19.50;;;9.75;;
18520;SDS011;9390;51.244;6.982;2023-03-23T14:18:32;19.45;;;9.50;;
18520;SDS011;9390;51.244;6.982;2023-03-23T14:21:14;17.33;;;8.57;;
18520;SDS011;9390;51.244;6.982;2023-03-23T14:23:46;15.70;;;7.63;;
18520;SDS011;9390;51.244;6.982;2023-03-23T14:26:20;14.73;;;7.72;;
18520;SDS011;9390;51.244;6.982;2023-03-23T14:28:52;15.18;;;6.85;;
18520;SDS011;9390;51.244;6.982;2023-03-23T14:31:25;11.27;;;4.82;;
18520;SDS011;9390;51.244;6.982;2023-03-23T14:34:00;13.57;;;4.10;;
18520;SDS011;9390;51.244;6.982;2023-03-23T14:36:34;9.98;;;3.60;;
18520;SDS011;9390;51.244;6.982;2023-03-23T14:39:17;12.90;;;3.17;;
18520;SDS011;9390;51.244;6.982;2023-03-23T14:41:53;8.52;;;3.13;;
18520;SDS011;9390;51.244;6.982;2023-03-23T14:44:26;12.68;;;3.70;;
18520;SDS011;9390;51.244;6.982;2023-03-23T14:47:00;7.00;;;3.05;;
18520;SDS011;9390;51.244;6.982;2023-03-23T14:49:34;11.48;;;3.25;;
18520;SDS011;9390;51.244;6.982;2023-03-23T14:52:09;7.38;;;2.88;;
18520;SDS011;9390;51.244;6.982;2023-03-23T14:54:41;10.80;;;2.90;;
18520;SDS011;9390;51.244;6.982;2023-03-23T14:57:15;9.55;;;2.78;;
18520;SDS011;9390;51.244;6.982;2023-03-23T14:59:48;10.18;;;2.63;;
18520;SDS011;9390;51.244;6.982;2023-03-23T15:02:22;12.80;;;2.70;;
18520;SDS011;9390;51.244;6.982;2023-03-23T15:04:58;12.32;;;2.97;;
18520;SDS011;9390;51.244;6.982;2023-03-23T15:07:32;9.93;;;3.20;;
18520;SDS011;9390;51.244;6.982;2023-03-23T15:10:05;10.80;;;3.70;;
18520;SDS011;9390;51.244;6.982;2023-03-23T15:12:39;8.25;;;2.95;;
18520;SDS011;9390;51.244;6.982;2023-03-23T15:15:18;10.18;;;3.00;;
18520;SDS011;9390;51.244;6.982;2023-03-23T15:17:53;11.63;;;3.33;;
18520;SDS011;9390;51.244;6.982;2023-03-23T15:20:26;15.90;;;3.58;;
18520;SDS011;9390;51.244;6.982;2023-03-23T15:23:04;12.07;;;4.13;;
18520;SDS011;9390;51.244;6.982;2023-03-23T15:25:36;9.30;;;3.40;;
18520;SDS011;9390;51.244;6.982;2023-03-23T15:28:16;13.07;;;3.90;;
18520;SDS011;9390;51.244;6.982;2023-03-23T15:30:49;9.45;;;3.55;;
18520;SDS011;9390;51.244;6.982;2023-03-23T15:33:21;12.95;;;3.70;;
18520;SDS011;9390;51.244;6.982;2023-03-23T15:35:57;11.18;;;4.00;;
18520;SDS011;9390;51.244;6.982;2023-03-23T15:38:29;10.32;;;3.38;;
18520;SDS011;9390;51.244;6.982;2023-03-23T15:41:03;11.40;;;3.05;;
18520;SDS011;9390;51.244;6.982;2023-03-23T15:43:50;13.43;;;4.03;;
18520;SDS011;9390;51.244;6.982;2023-03-23T15:46:22;11.43;;;2.80;;
18520;SDS011;9390;51.244;6.982;2023-03-23T15:49:04;10.57;;;3.28;;
18520;SDS011;9390;51.244;6.982;2023-03-23T15:51:38;12.18;;;4.22;;
18520;SDS011;9390;51.244;6.982;2023-03-23T15:54:12;10.10;;;3.60;;
18520;SDS011;9390;51.244;6.982;2023-03-23T15:56:44;9.68;;;3.40;;
18520;SDS011;9390;51.244;6.982;2023-03-23T15:59:18;10.50;;;3.20;;
18520;SDS011;9390;51.244;6.982;2023-03-23T16:01:49;9.93;;;4.05;;
18520;SDS011;9390;51.244;6.982;2023-03-23T16:04:21;11.32;;;3.40;;
18520;SDS011;9390;51.244;6.982;2023-03-23T16:06:53;12.00;;;3.08;;
18520;SDS011;9390;51.244;6.982;2023-03-23T16:09:26;11.95;;;3.88;;
18520;SDS011;9390;51.244;6.982;2023-03-23T16:11:59;10.32;;;4.00;;
18520;SDS011;9390;51.244;6.982;2023-03-23T16:14:31;10.20;;;3.33;;
18520;SDS011;9390;51.244;6.982;2023-03-23T16:19:36;12.75;;;3.85;;
18520;SDS011;9390;51.244;6.982;2023-03-23T16:22:08;13.13;;;3.58;;
18520;SDS011;9390;51.244;6.982;2023-03-23T16:24:40;13.90;;;3.72;;
18520;SDS011;9390;51.244;6.982;2023-03-23T16:27:11;11.85;;;3.80;;
18520;SDS011;9390;51.244;6.982;2023-03-23T16:29:44;10.13;;;3.30;;
18520;SDS011;9390;51.244;6.982;2023-03-23T16:32:16;14.40;;;3.78;;
18520;SDS011;9390;51.244;6.982;2023-03-23T16:34:48;12.52;;;3.70;;
18520;SDS011;9390;51.244;6.982;2023-03-23T16:37:19;15.10;;;3.95;;
18520;SDS011;9390;51.244;6.982;2023-03-23T16:39:51;11.02;;;3.67;;
18520;SDS011;9390;51.244;6.982;2023-03-23T16:42:22;13.05;;;4.30;;
18520;SDS011;9390;51.244;6.982;2023-03-23T16:44:55;10.80;;;3.25;;
18520;SDS011;9390;51.244;6.982;2023-03-23T16:47:26;11.55;;;3.53;;
18520;SDS011;9390;51.244;6.982;2023-03-23T16:49:57;12.07;;;3.83;;
18520;SDS011;9390;51.244;6.982;2023-03-23T16:52:29;13.85;;;3.58;;
18520;SDS011;9390;51.244;6.982;2023-03-23T16:55:00;11.20;;;3.67;;
18520;SDS011;9390;51.244;6.982;2023-03-23T16:57:33;9.77;;;3.30;;
18520;SDS011;9390;51.244;6.982;2023-03-23T17:00:08;15.88;;;3.50;;
18520;SDS011;9390;51.244;6.982;2023-03-23T17:02:43;11.00;;;3.00;;
18520;SDS011;9390;51.244;6.982;2023-03-23T17:05:16;14.20;;;3.00;;
18520;SDS011;9390;51.244;6.982;2023-03-23T17:07:48;11.18;;;3.22;;
18520;SDS011;9390;51.244;6.982;2023-03-23T17:10:20;7.85;;;2.83;;
18520;SDS011;9390;51.244;6.982;2023-03-23T17:12:52;11.50;;;2.95;;
18520;SDS011;9390;51.244;6.982;2023-03-23T17:15:25;10.25;;;2.80;;
18520;SDS011;9390;51.244;6.982;2023-03-23T17:17:56;11.38;;;2.60;;
18520;SDS011;9390;51.244;6.982;2023-03-23T17:20:27;11.23;;;2.63;;
18520;SDS011;9390;51.244;6.982;2023-03-23T17:22:59;9.32;;;2.30;;
18520;SDS011;9390;51.244;6.982;2023-03-23T17:25:30;10.48;;;2.47;;
18520;SDS011;9390;51.244;6.982;2023-03-23T17:28:02;11.50;;;3.00;;
18520;SDS011;9390;51.244;6.982;2023-03-23T17:30:35;8.23;;;2.50;;
18520;SDS011;9390;51.244;6.982;2023-03-23T17:33:10;7.95;;;2.22;;
18520;SDS011;9390;51.244;6.982;2023-03-23T17:35:41;13.00;;;2.65;;
18520;SDS011;9390;51.244;6.982;2023-03-23T17:38:13;9.05;;;2.20;;
18520;SDS011;9390;51.244;6.982;2023-03-23T17:40:44;10.20;;;2.50;;
18520;SDS011;9390;51.244;6.982;2023-03-23T17:43:16;9.30;;;2.58;;
18520;SDS011;9390;51.244;6.982;2023-03-23T17:45:48;7.38;;;1.98;;
18520;SDS011;9390;51.244;6.982;2023-03-23T17:48:20;10.93;;;2.38;;
18520;SDS011;9390;51.244;6.982;2023-03-23T17:50:53;10.23;;;2.47;;
18520;SDS011;9390;51.244;6.982;2023-03-23T17:53:27;10.05;;;2.72;;
18520;SDS011;9390;51.244;6.982;2023-03-23T17:55:59;11.93;;;3.08;;
18520;SDS011;9390;51.244;6.982;2023-03-23T17:58:30;6.30;;;2.38;;
18520;SDS011;9390;51.244;6.982;2023-03-23T18:01:03;9.43;;;2.30;;
18520;SDS011;9390;51.244;6.982;2023-03-23T18:03:35;7.43;;;2.10;;
18520;SDS011;9390;51.244;6.982;2023-03-23T18:06:07;9.45;;;2.17;;
18520;SDS011;9390;51.244;6.982;2023-03-23T18:08:39;8.97;;;2.43;;
18520;SDS011;9390;51.244;6.982;2023-03-23T18:11:10;10.23;;;2.45;;
18520;SDS011;9390;51.244;6.982;2023-03-23T18:13:42;7.25;;;1.90;;
18520;SDS011;9390;51.244;6.982;2023-03-23T18:16:15;7.45;;;2.42;;
18520;SDS011;9390;51.244;6.982;2023-03-23T18:18:46;6.82;;;1.92;;
18520;SDS011;9390;51.244;6.982;2023-03-23T18:21:18;10.13;;;2.72;;
18520;SDS011;9390;51.244;6.982;2023-03-23T18:23:49;8.77;;;2.47;;
18520;SDS011;9390;51.244;6.982;2023-03-23T18:26:21;10.88;;;2.47;;
18520;SDS011;9390;51.244;6.982;2023-03-23T18:28:52;11.63;;;2.67;;
18520;SDS011;9390;51.244;6.982;2023-03-23T18:31:26;10.33;;;2.60;;
18520;SDS011;9390;51.244;6.982;2023-03-23T18:36:29;16.83;;;2.50;;
18520;SDS011;9390;51.244;6.982;2023-03-23T18:39:03;10.48;;;2.13;;
18520;SDS011;9390;51.244;6.982;2023-03-23T18:41:35;11.43;;;2.80;;
18520;SDS011;9390;51.244;6.982;2023-03-23T18:44:07;8.10;;;2.40;;
18520;SDS011;9390;51.244;6.982;2023-03-23T18:46:39;9.70;;;2.13;;
18520;SDS011;9390;51.244;6.982;2023-03-23T18:49:11;11.05;;;2.65;;
18520;SDS011;9390;51.244;6.982;2023-03-23T18:51:42;9.38;;;2.33;;
18520;SDS011;9390;51.244;6.982;2023-03-23T18:54:14;8.32;;;2.35;;
18520;SDS011;9390;51.244;6.982;2023-03-23T18:56:46;9.02;;;2.00;;
18520;SDS011;9390;51.244;6.982;2023-03-23T18:59:17;7.50;;;2.40;;
18520;SDS011;9390;51.244;6.982;2023-03-23T19:01:50;11.15;;;2.90;;
18520;SDS011;9390;51.244;6.982;2023-03-23T19:04:22;11.50;;;2.65;;
18520;SDS011;9390;51.244;6.982;2023-03-23T19:06:53;10.50;;;2.47;;
18520;SDS011;9390;51.244;6.982;2023-03-23T19:09:24;9.70;;;2.72;;
18520;SDS011;9390;51.244;6.982;2023-03-23T19:11:56;8.95;;;2.33;;
18520;SDS011;9390;51.244;6.982;2023-03-23T19:14:28;8.30;;;2.70;;
18520;SDS011;9390;51.244;6.982;2023-03-23T19:17:01;11.18;;;2.88;;
18520;SDS011;9390;51.244;6.982;2023-03-23T19:19:32;8.50;;;2.38;;
18520;SDS011;9390;51.244;6.982;2023-03-23T19:22:04;8.50;;;2.83;;
18520;SDS011;9390;51.244;6.982;2023-03-23T19:24:36;9.03;;;2.43;;
18520;SDS011;9390;51.244;6.982;2023-03-23T19:27:08;6.47;;;2.17;;
18520;SDS011;9390;51.244;6.982;2023-03-23T19:29:39;8.77;;;2.70;;
18520;SDS011;9390;51.244;6.982;2023-03-23T19:32:12;9.55;;;2.35;;
18520;SDS011;9390;51.244;6.982;2023-03-23T19:34:44;10.88;;;2.50;;
18520;SDS011;9390;51.244;6.982;2023-03-23T19:37:17;6.82;;;2.40;;
18520;SDS011;9390;51.244;6.982;2023-03-23T19:39:48;8.05;;;2.13;;
18520;SDS011;9390;51.244;6.982;2023-03-23T19:42:20;10.13;;;2.50;;
18520;SDS011;9390;51.244;6.982;2023-03-23T19:44:52;9.02;;;2.47;;
18520;SDS011;9390;51.244;6.982;2023-03-23T19:47:25;11.63;;;2.60;;
18520;SDS011;9390;51.244;6.982;2023-03-23T19:49:57;8.05;;;2.40;;
18520;SDS011;9390;51.244;6.982;2023-03-23T19:52:30;10.70;;;2.33;;
18520;SDS011;9390;51.244;6.982;2023-03-23T19:55:01;9.27;;;2.53;;
18520;SDS011;9390;51.244;6.982;2023-03-23T19:57:33;10.38;;;2.03;;
18520;SDS011;9390;51.244;6.982;2023-03-23T20:00:06;8.30;;;2.47;;
18520;SDS011;9390;51.244;6.982;2023-03-23T20:02:43;8.82;;;2.50;;
18520;SDS011;9390;51.244;6.982;2023-03-23T20:05:15;8.23;;;2.45;;
18520;SDS011;9390;51.244;6.982;2023-03-23T20:07:46;10.60;;;2.70;;
18520;SDS011;9390;51.244;6.982;2023-03-23T20:10:18;8.70;;;2.40;;
18520;SDS011;9390;51.244;6.982;2023-03-23T20:12:50;11.15;;;2.80;;
18520;SDS011;9390;51.244;6.982;2023-03-23T20:15:21;10.27;;;2.38;;
18520;SDS011;9390;51.244;6.982;2023-03-23T20:17:55;7.90;;;2.65;;
18520;SDS011;9390;51.244;6.982;2023-03-23T20:20:27;9.77;;;3.05;;
18520;SDS011;9390;51.244;6.982;2023-03-23T20:22:59;6.25;;;2.25;;
18520;SDS011;9390;51.244;6.982;2023-03-23T20:25:31;9.55;;;2.47;;
18520;SDS011;9390;51.244;6.982;2023-03-23T20:28:02;11.02;;;2.50;;
18520;SDS011;9390;51.244;6.982;2023-03-23T20:30:44;6.30;;;2.10;;
18520;SDS011;9390;51.244;6.982;2023-03-23T20:33:17;7.88;;;2.30;;
18520;SDS011;9390;51.244;6.982;2023-03-23T20:35:50;10.55;;;2.83;;
18520;SDS011;9390;51.244;6.982;2023-03-23T20:38:22;7.05;;;2.45;;
18520;SDS011;9390;51.244;6.982;2023-03-23T20:40:53;8.15;;;2.58;;
18520;SDS011;9390;51.244;6.982;2023-03-23T20:43:25;6.40;;;2.50;;
18520;SDS011;9390;51.244;6.982;2023-03-23T20:45:58;11.65;;;2.70;;
18520;SDS011;9390;51.244;6.982;2023-03-23T20:48:33;11.32;;;2.45;;
18520;SDS011;9390;51.244;6.982;2023-03-23T20:51:07;7.68;;;2.55;;
18520;SDS011;9390;51.244;6.982;2023-03-23T20:53:39;7.50;;;2.35;;
18520;SDS011;9390;51.244;6.982;2023-03-23T20:56:11;11.10;;;2.40;;
18520;SDS011;9390;51.244;6.982;2023-03-23T20:58:43;9.53;;;2.40;;
18520;SDS011;9390;51.244;6.982;2023-03-23T21:01:14;9.43;;;2.35;;
18520;SDS011;9390;51.244;6.982;2023-03-23T21:03:47;7.60;;;2.38;;
18520;SDS011;9390;51.244;6.982;2023-03-23T21:06:21;12.00;;;2.38;;
18520;SDS011;9390;51.244;6.982;2023-03-23T21:08:57;9.18;;;2.08;;
18520;SDS011;9390;51.244;6.982;2023-03-23T21:11:28;10.43;;;2.38;;
18520;SDS011;9390;51.244;6.982;2023-03-23T21:14:00;7.18;;;2.17;;
18520;SDS011;9390;51.244;6.982;2023-03-23T21:16:32;8.95;;;2.40;;
18520;SDS011;9390;51.244;6.982;2023-03-23T21:19:05;9.23;;;2.50;;
18520;SDS011;9390;51.244;6.982;2023-03-23T21:24:11;9.13;;;2.53;;
18520;SDS011;9390;51.244;6.982;2023-03-23T21:26:43;9.18;;;2.22;;
18520;SDS011;9390;51.244;6.982;2023-03-23T21:29:15;7.43;;;2.40;;
18520;SDS011;9390;51.244;6.982;2023-03-23T21:31:47;7.57;;;2.60;;
18520;SDS011;9390;51.244;6.982;2023-03-23T21:34:23;8.88;;;3.17;;
18520;SDS011;9390;51.244;6.982;2023-03-23T21:36:55;11.73;;;2.30;;
18520;SDS011;9390;51.244;6.982;2023-03-23T21:39:30;9.98;;;2.92;;
18520;SDS011;9390;51.244;6.982;2023-03-23T21:42:02;7.57;;;2.70;;
18520;SDS011;9390;51.244;6.982;2023-03-23T21:44:35;10.43;;;2.78;;
18520;SDS011;9390;51.244;6.982;2023-03-23T21:47:08;5.38;;;2.17;;
18520;SDS011;9390;51.244;6.982;2023-03-23T21:49:43;10.80;;;2.53;;
18520;SDS011;9390;51.244;6.982;2023-03-23T21:52:15;8.90;;;2.40;;
18520;SDS011;9390;51.244;6.982;2023-03-23T21:54:46;7.15;;;2.60;;
18520;SDS011;9390;51.244;6.982;2023-03-23T21:57:18;8.25;;;2.40;;
18520;SDS011;9390;51.244;6.982;2023-03-23T21:59:50;6.63;;;2.33;;
18520;SDS011;9390;51.244;6.982;2023-03-23T22:02:21;9.35;;;2.17;;
18520;SDS011;9390;51.244;6.982;2023-03-23T22:04:55;6.57;;;2.60;;
18520;SDS011;9390;51.244;6.982;2023-03-23T22:07:26;8.88;;;2.13;;
18520;SDS011;9390;51.244;6.982;2023-03-23T22:09:58;7.97;;;2.35;;
18520;SDS011;9390;51.244;6.982;2023-03-23T22:12:30;6.53;;;2.30;;
18520;SDS011;9390;51.244;6.982;2023-03-23T22:15:01;8.23;;;2.92;;
18520;SDS011;9390;51.244;6.982;2023-03-23T22:17:34;7.72;;;2.38;;
18520;SDS011;9390;51.244;6.982;2023-03-23T22:20:10;7.93;;;2.50;;
18520;SDS011;9390;51.244;6.982;2023-03-23T22:22:43;6.38;;;2.10;;
18520;SDS011;9390;51.244;6.982;2023-03-23T22:25:15;7.93;;;2.60;;
18520;SDS011;9390;51.244;6.982;2023-03-23T22:27:46;6.95;;;2.70;;
18520;SDS011;9390;51.244;6.982;2023-03-23T22:30:18;6.75;;;2.67;;
18520;SDS011;9390;51.244;6.982;2023-03-23T22:32:50;7.47;;;2.60;;
18520;SDS011;9390;51.244;6.982;2023-03-23T22:35:23;11.23;;;3.03;;
18520;SDS011;9390;51.244;6.982;2023-03-23T22:40:26;7.38;;;2.83;;
18520;SDS011;9390;51.244;6.982;2023-03-23T22:42:57;6.13;;;2.55;;
18520;SDS011;9390;51.244;6.982;2023-03-23T22:45:29;8.60;;;2.78;;
18520;SDS011;9390;51.244;6.982;2023-03-23T22:48:01;6.53;;;2.47;;
18520;SDS011;9390;51.244;6.982;2023-03-23T22:50:35;6.43;;;2.55;;
18520;SDS011;9390;51.244;6.982;2023-03-23T22:53:07;11.10;;;2.63;;
18520;SDS011;9390;51.244;6.982;2023-03-23T22:55:40;7.20;;;2.63;;
18520;SDS011;9390;51.244;6.982;2023-03-23T22:58:12;7.38;;;2.97;;
18520;SDS011;9390;51.244;6.982;2023-03-23T23:00:45;6.53;;;2.58;;
18520;SDS011;9390;51.244;6.982;2023-03-23T23:03:17;9.88;;;2.80;;
18520;SDS011;9390;51.244;6.982;2023-03-23T23:05:51;12.82;;;3.03;;
18520;SDS011;9390;51.244;6.982;2023-03-23T23:08:23;8.68;;;3.20;;
18520;SDS011;9390;51.244;6.982;2023-03-23T23:10:56;6.22;;;2.45;;
18520;SDS011;9390;51.244;6.982;2023-03-23T23:13:28;8.43;;;3.03;;
18520;SDS011;9390;51.244;6.982;2023-03-23T23:16:00;6.45;;;2.50;;
18520;SDS011;9390;51.244;6.982;2023-03-23T23:18:32;8.77;;;2.40;;
18520;SDS011;9390;51.244;6.982;2023-03-23T23:21:07;9.85;;;2.90;;
18520;SDS011;9390;51.244;6.982;2023-03-23T23:23:39;11.13;;;2.53;;
18520;SDS011;9390;51.244;6.982;2023-03-23T23:26:11;6.97;;;2.63;;